Time;durP1;ratioP1;P1;durP2;ratioP2;P2;SDS_P1;SDS_P2;PMS_P1;PMS_P2;Temp;Humidity;BMP_temperature;BMP_pressure;BME280_temperature;BME280_humidity;BME280_pressure;Samples;Min_cycle;Max_cycle;Signal;HPM_P1;HPM_P2
2022/12/08 00:01:18;;;;;;;2.13;1.03;;;0.70;99.90;;;;;;5055540;28;20537;-50
2022/12/08 00:03:45;;;;;;;1.40;0.93;;;0.80;99.90;;;;;;5055759;28;20561;-51
2022/12/08 00:09:22;;;;;;;1.20;0.90;;;0.70;99.90;;;;;;5069256;28;20439;-49
2022/12/08 00:11:54;;;;;;;1.57;0.90;;;0.80;99.90;;;;;;5071061;28;20440;-47
2022/12/08 00:14:24;;;;;;;1.00;0.80;;;0.10;99.90;;;;;;5053413;28;20548;-47
2022/12/08 00:16:51;;;;;;;1.43;1.10;;;0.00;99.90;;;;;;5071254;28;20524;-47
2022/12/08 00:19:18;;;;;;;1.43;0.97;;;0.10;99.90;;;;;;5053734;28;20536;-49
2022/12/08 00:21:45;;;;;;;1.60;1.20;;;0.10;99.90;;;;;;5051457;28;21006;-47
2022/12/08 00:24:13;;;;;;;1.30;0.97;;;-0.30;99.90;;;;;;5052218;28;20485;-47
2022/12/08 00:26:40;;;;;;;1.20;0.97;;;0.00;99.90;;;;;;5052260;28;20442;-47
2022/12/08 00:29:07;;;;;;;1.90;1.10;;;-0.10;99.90;;;;;;5051009;28;20473;-49
2022/12/08 00:31:34;;;;;;;2.23;1.07;;;0.40;99.90;;;;;;5062754;28;20454;-47
2022/12/08 00:34:01;;;;;;;1.40;0.70;;;0.00;99.90;;;;;;5059505;28;20549;-50
2022/12/08 00:36:29;;;;;;;0.90;0.60;;;-0.30;99.90;;;;;;5051336;28;20541;-47
2022/12/08 00:38:56;;;;;;;1.20;0.73;;;-0.40;99.90;;;;;;5051287;28;20453;-47
2022/12/08 00:44:09;;;;;;;1.30;1.00;;;-0.10;99.90;;;;;;5066366;28;20469;-47
2022/12/08 00:46:36;;;;;;;1.07;0.70;;;0.10;99.90;;;;;;5051050;28;20456;-50
2022/12/08 00:49:04;;;;;;;1.30;0.90;;;0.30;99.90;;;;;;5061038;28;20445;-47
2022/12/08 00:51:31;;;;;;;1.10;0.90;;;0.40;99.90;;;;;;5050950;28;20438;-48
2022/12/08 00:53:58;;;;;;;1.37;1.27;;;0.50;99.90;;;;;;5054280;28;20548;-50
2022/12/08 00:56:27;;;;;;;2.07;1.07;;;0.40;99.90;;;;;;5051003;28;20442;-48
2022/12/08 00:58:54;;;;;;;2.37;1.20;;;0.40;99.90;;;;;;5051879;28;20541;-47
2022/12/08 01:01:21;;;;;;;1.73;1.13;;;0.30;99.90;;;;;;5064682;28;20532;-49
2022/12/08 01:03:47;;;;;;;1.50;1.00;;;0.40;99.90;;;;;;5055307;28;20477;-47
2022/12/08 01:06:14;;;;;;;1.33;0.80;;;0.40;99.90;;;;;;5058314;28;20445;-47
2022/12/08 01:08:42;;;;;;;1.50;1.20;;;0.50;99.90;;;;;;5056447;28;20893;-50
2022/12/08 01:11:11;;;;;;;1.33;1.17;;;0.50;99.90;;;;;;5057444;28;20441;-47
2022/12/08 01:13:39;;;;;;;1.00;0.70;;;0.50;99.90;;;;;;5072538;28;20544;-47
2022/12/08 01:16:07;;;;;;;1.70;1.50;;;0.30;99.90;;;;;;5061823;28;20447;-47
2022/12/08 01:18:34;;;;;;;1.30;0.93;;;0.20;99.90;;;;;;5074385;28;20527;-50
2022/12/08 01:21:05;;;;;;;1.70;1.23;;;0.00;99.90;;;;;;5074011;28;21001;-46
2022/12/08 01:23:33;;;;;;;1.27;1.00;;;0.10;99.90;;;;;;5073318;28;20482;-49
2022/12/08 01:26:03;;;;;;;1.60;1.00;;;0.00;99.90;;;;;;5071679;28;20532;-47
2022/12/08 01:28:30;;;;;;;1.77;0.80;;;0.00;99.90;;;;;;5067608;28;20942;-47
2022/12/08 01:30:59;;;;;;;1.73;1.20;;;0.20;99.90;;;;;;5054294;28;20449;-47
2022/12/08 01:33:26;;;;;;;1.30;1.00;;;0.10;99.90;;;;;;5060944;28;20461;-47
2022/12/08 01:35:54;;;;;;;1.60;1.33;;;0.10;99.90;;;;;;5059296;28;20934;-47
2022/12/08 01:38:21;;;;;;;1.20;0.80;;;-0.10;99.90;;;;;;5054134;28;20453;-46
2022/12/08 01:40:49;;;;;;;1.70;1.00;;;-0.30;99.90;;;;;;5060380;28;20694;-47
2022/12/08 01:43:17;;;;;;;1.03;0.63;;;-0.20;99.90;;;;;;5073586;28;20547;-49
2022/12/08 01:45:44;;;;;;;1.07;0.70;;;-0.10;99.90;;;;;;5058224;28;20528;-47
2022/12/08 01:48:18;;;;;;;1.00;0.73;;;-0.10;99.90;;;;;;5062103;28;20531;-47
2022/12/08 01:50:46;;;;;;;1.07;0.80;;;0.00;99.90;;;;;;5069973;28;20442;-47
2022/12/08 01:53:17;;;;;;;1.60;0.73;;;0.10;99.90;;;;;;5053563;28;20853;-47
2022/12/08 01:55:47;;;;;;;0.97;0.67;;;0.00;99.90;;;;;;5059911;28;20451;-47
2022/12/08 01:58:19;;;;;;;1.20;0.77;;;-0.20;99.90;;;;;;5072937;28;20988;-47
2022/12/08 02:00:46;;;;;;;1.60;1.13;;;-0.30;99.90;;;;;;5069860;28;20887;-47
2022/12/08 02:03:20;;;;;;;1.10;0.80;;;-0.50;99.90;;;;;;5065317;28;20541;-47
2022/12/08 02:05:47;;;;;;;1.10;0.83;;;-0.80;99.90;;;;;;5065296;28;20448;-47
2022/12/08 02:08:15;;;;;;;1.00;0.70;;;-0.40;99.90;;;;;;5053511;28;20532;-47
2022/12/08 02:10:43;;;;;;;1.10;0.73;;;-0.30;99.90;;;;;;5054603;28;20452;-47
2022/12/08 02:13:13;;;;;;;1.10;0.90;;;-0.30;99.90;;;;;;5053202;28;20461;-47
2022/12/08 02:15:49;;;;;;;1.10;0.90;;;-0.20;99.90;;;;;;5053718;28;20532;-44
2022/12/08 02:18:31;;;;;;;1.00;0.80;;;-0.10;99.90;;;;;;5053401;28;20465;-50
2022/12/08 02:21:03;;;;;;;1.10;0.80;;;-0.10;99.90;;;;;;5053562;28;20520;-48
2022/12/08 02:23:41;;;;;;;1.07;0.60;;;-0.30;99.90;;;;;;5055880;28;20496;-48
2022/12/08 02:26:32;;;;;;;1.00;0.90;;;-0.50;99.90;;;;;;5070900;28;20527;-47
2022/12/08 02:29:31;;;;;;;1.67;0.80;;;-0.40;99.90;;;;;;5073093;28;20532;-47
2022/12/08 02:32:17;;;;;;;1.20;1.10;;;-0.40;99.90;;;;;;5035992;28;20528;-47
2022/12/08 02:34:47;;;;;;;1.13;0.90;;;-0.30;99.90;;;;;;5055723;28;20440;-47
2022/12/08 02:37:20;;;;;;;1.20;0.70;;;-0.30;99.90;;;;;;5053161;28;20437;-47
2022/12/08 02:39:53;;;;;;;1.20;0.97;;;-0.20;99.90;;;;;;5053019;28;20446;-47
2022/12/08 02:42:27;;;;;;;2.30;1.00;;;-0.60;99.90;;;;;;5054543;28;20465;-48
2022/12/08 02:45:00;;;;;;;1.10;0.80;;;-0.70;99.90;;;;;;5072663;28;20482;-47
2022/12/08 02:47:29;;;;;;;1.37;1.10;;;-0.50;99.90;;;;;;5071127;28;20561;-50
2022/12/08 02:49:57;;;;;;;1.30;1.00;;;-0.20;99.90;;;;;;5070313;28;20535;-48
2022/12/08 02:52:42;;;;;;;1.57;0.77;;;0.00;99.90;;;;;;5056111;28;20536;-47
2022/12/08 02:55:17;;;;;;;1.67;1.17;;;-0.40;99.90;;;;;;5060028;28;20433;-47
2022/12/08 02:58:06;;;;;;;1.27;0.80;;;-0.30;99.90;;;;;;5072340;28;20793;-49
2022/12/08 03:00:42;;;;;;;1.10;0.93;;;-0.40;99.90;;;;;;5050688;28;20532;-47
2022/12/08 03:03:17;;;;;;;1.40;1.00;;;-0.30;99.90;;;;;;5051360;28;20552;-47
2022/12/08 03:05:57;;;;;;;1.20;0.97;;;-0.20;99.90;;;;;;5052462;28;20568;-47
2022/12/08 03:08:32;;;;;;;1.00;0.83;;;-0.20;99.90;;;;;;5051433;28;20446;-47
2022/12/08 03:11:04;;;;;;;1.40;0.90;;;-0.20;99.90;;;;;;5052538;28;20520;-48
2022/12/08 03:13:38;;;;;;;1.23;1.10;;;-0.50;99.90;;;;;;5052002;28;20569;-47
2022/12/08 03:16:08;;;;;;;1.30;1.10;;;-0.40;99.90;;;;;;5051697;28;20802;-47
2022/12/08 03:18:39;;;;;;;1.10;1.00;;;-0.50;99.90;;;;;;5051455;28;20536;-48
2022/12/08 03:21:10;;;;;;;1.20;0.77;;;-0.50;99.90;;;;;;5052413;28;20817;-47
2022/12/08 03:23:39;;;;;;;1.90;0.93;;;-0.80;99.90;;;;;;5051571;28;20544;-47
2022/12/08 03:26:11;;;;;;;1.20;0.93;;;-0.60;99.90;;;;;;5051515;28;20473;-47
2022/12/08 03:28:39;;;;;;;2.00;0.97;;;-0.50;99.90;;;;;;5051931;28;20818;-47
2022/12/08 03:31:10;;;;;;;1.47;1.03;;;-0.50;99.90;;;;;;5051474;28;20442;-47
2022/12/08 03:33:40;;;;;;;1.00;0.70;;;-0.30;99.90;;;;;;5051906;28;20508;-47
2022/12/08 03:36:10;;;;;;;1.77;1.57;;;-0.40;99.90;;;;;;5051803;28;20869;-47
2022/12/08 03:38:39;;;;;;;2.37;1.60;;;-0.40;99.90;;;;;;5052039;28;20507;-47
2022/12/08 03:41:18;;;;;;;1.70;1.60;;;-0.30;99.90;;;;;;5051545;28;21013;-47
2022/12/08 03:43:45;;;;;;;2.27;1.70;;;-0.40;99.90;;;;;;5050542;28;20544;-50
2022/12/08 03:46:12;;;;;;;2.33;1.57;;;-1.00;99.90;;;;;;5051362;28;20469;-47
2022/12/08 03:48:39;;;;;;;2.57;1.10;;;-1.30;99.90;;;;;;5059602;28;20443;-48
2022/12/08 03:51:06;;;;;;;1.33;1.20;;;-1.50;99.90;;;;;;5071719;28;20441;-49
2022/12/08 03:53:34;;;;;;;1.33;0.97;;;-1.60;99.90;;;;;;5064493;28;20466;-48
2022/12/08 03:56:03;;;;;;;1.07;0.90;;;-1.60;99.90;;;;;;5069480;28;20439;-48
2022/12/08 03:58:29;;;;;;;1.53;0.87;;;-1.40;99.90;;;;;;5065684;28;20450;-47
2022/12/08 04:00:56;;;;;;;1.30;1.03;;;-1.00;99.90;;;;;;5066746;28;20440;-47
2022/12/08 04:03:23;;;;;;;1.13;1.00;;;-0.70;99.90;;;;;;5057976;28;20465;-47
2022/12/08 04:05:50;;;;;;;1.67;0.90;;;-0.60;99.90;;;;;;5064981;28;20477;-49
2022/12/08 04:08:17;;;;;;;2.17;1.27;;;-0.50;99.90;;;;;;5069674;28;20946;-49
2022/12/08 04:10:45;;;;;;;1.33;1.10;;;-0.80;99.90;;;;;;5067835;28;20440;-48
2022/12/08 04:13:12;;;;;;;1.43;1.27;;;-0.90;99.90;;;;;;5051209;28;20548;-47
2022/12/08 04:15:38;;;;;;;1.80;1.67;;;-1.20;99.90;;;;;;5066971;28;20821;-47
2022/12/08 04:18:05;;;;;;;1.50;1.20;;;-1.10;99.90;;;;;;5054841;28;20894;-47
2022/12/08 04:20:32;;;;;;;1.10;0.93;;;-1.00;99.90;;;;;;5065149;28;20451;-47
2022/12/08 04:22:59;;;;;;;1.43;1.13;;;-0.80;99.90;;;;;;5070787;28;20467;-47
2022/12/08 04:25:26;;;;;;;1.23;0.87;;;-1.00;99.90;;;;;;5069635;28;21061;-47
2022/12/08 04:27:55;;;;;;;1.40;1.17;;;-1.30;99.90;;;;;;5064091;28;20442;-48
2022/12/08 04:30:22;;;;;;;1.63;1.40;;;-1.50;99.90;;;;;;5066807;28;20499;-47
2022/12/08 04:32:48;;;;;;;1.40;1.10;;;-2.00;99.90;;;;;;5057315;28;20526;-44
2022/12/08 04:35:15;;;;;;;1.20;1.10;;;-2.00;99.90;;;;;;5062508;28;20448;-47
2022/12/08 04:37:43;;;;;;;2.20;1.10;;;-1.90;99.90;;;;;;5059636;28;20527;-49
2022/12/08 04:40:10;;;;;;;1.30;1.07;;;-1.80;99.90;;;;;;5060131;28;20472;-48
2022/12/08 04:42:38;;;;;;;1.90;1.50;;;-1.70;99.90;;;;;;5057281;28;20552;-47
2022/12/08 04:45:07;;;;;;;1.63;1.40;;;-1.50;99.90;;;;;;5070731;28;20555;-50
2022/12/08 04:47:34;;;;;;;1.70;1.40;;;-1.40;99.90;;;;;;5054773;28;20520;-47
2022/12/08 04:50:01;;;;;;;1.90;0.97;;;-1.60;99.90;;;;;;5054441;28;20452;-49
2022/12/08 04:52:28;;;;;;;1.63;1.50;;;-1.50;99.90;;;;;;5054784;28;20568;-48
2022/12/08 04:54:55;;;;;;;1.13;1.03;;;-1.50;99.90;;;;;;5053577;28;20444;-47
2022/12/08 04:57:22;;;;;;;1.47;1.37;;;-1.20;99.90;;;;;;5054152;28;20540;-47
2022/12/08 04:59:48;;;;;;;2.23;1.23;;;-0.90;99.90;;;;;;5061380;28;20441;-47
2022/12/08 05:02:16;;;;;;;1.40;1.20;;;-0.90;99.90;;;;;;5059579;28;20537;-47
2022/12/08 05:04:43;;;;;;;4.73;2.20;;;-1.10;99.90;;;;;;5055973;28;21073;-47
2022/12/08 05:07:10;;;;;;;2.70;2.27;;;-1.30;99.90;;;;;;5056775;28;20441;-48
2022/12/08 05:09:37;;;;;;;2.20;1.50;;;-1.00;99.90;;;;;;5054730;28;20631;-48
2022/12/08 05:12:04;;;;;;;2.60;1.60;;;-1.00;99.90;;;;;;5055652;28;20456;-47
2022/12/08 05:14:31;;;;;;;2.67;2.47;;;-1.20;99.90;;;;;;5055350;28;20540;-47
2022/12/08 05:16:58;;;;;;;5.13;3.07;;;-1.20;99.90;;;;;;5055565;28;20483;-47
2022/12/08 05:19:26;;;;;;;4.40;2.40;;;-1.20;99.90;;;;;;5054420;28;20449;-49
2022/12/08 05:21:53;;;;;;;5.60;3.63;;;-1.10;99.90;;;;;;5059486;28;20817;-48
2022/12/08 05:24:20;;;;;;;2.57;1.80;;;-1.10;99.90;;;;;;5074124;28;20465;-47
2022/12/08 05:26:47;;;;;;;2.50;1.73;;;-1.10;99.90;;;;;;5061976;28;20823;-47
2022/12/08 05:29:13;;;;;;;1.87;1.40;;;-1.10;99.90;;;;;;5070325;28;20877;-49
2022/12/08 05:31:40;;;;;;;2.27;1.37;;;-1.00;99.90;;;;;;5069074;28;20447;-48
2022/12/08 05:34:07;;;;;;;1.83;1.57;;;-1.20;99.90;;;;;;5074138;28;20548;-47
2022/12/08 05:36:35;;;;;;;2.13;1.60;;;-1.20;99.90;;;;;;5069268;28;20877;-48
2022/12/08 05:39:02;;;;;;;2.30;1.50;;;-1.00;99.90;;;;;;5072444;28;20441;-49
2022/12/08 05:41:29;;;;;;;2.00;1.50;;;-1.10;99.90;;;;;;5073739;28;20445;-48
2022/12/08 05:43:56;;;;;;;1.30;1.00;;;-0.90;99.90;;;;;;5064299;28;20469;-47
2022/12/08 05:46:23;;;;;;;1.73;1.37;;;-0.80;99.90;;;;;;5058370;28;20476;-48
2022/12/08 05:48:49;;;;;;;1.30;1.20;;;-1.00;99.90;;;;;;5060029;28;20901;-47
2022/12/08 05:51:19;;;;;;;1.53;1.30;;;-1.00;99.90;;;;;;5081690;28;20442;-47
2022/12/08 05:53:48;;;;;;;1.80;1.50;;;-1.20;99.90;;;;;;5086623;28;20465;-48
2022/12/08 05:56:15;;;;;;;1.93;1.50;;;-1.20;99.90;;;;;;5073160;28;20532;-46
2022/12/08 05:58:42;;;;;;;2.27;1.70;;;-1.30;99.90;;;;;;5070304;28;20949;-47
2022/12/08 06:01:19;;;;;;;1.93;1.20;;;-1.30;99.90;;;;;;5054852;28;20448;-47
2022/12/08 06:03:45;;;;;;;2.30;1.83;;;-1.30;99.90;;;;;;5053491;28;20981;-49
2022/12/08 06:06:12;;;;;;;1.73;1.50;;;-1.40;99.90;;;;;;5057463;28;20475;-47
2022/12/08 06:08:39;;;;;;;2.43;2.00;;;-1.20;99.90;;;;;;5070955;28;20451;-49
2022/12/08 06:11:08;;;;;;;1.93;1.70;;;-1.00;99.90;;;;;;5054357;28;20442;-49
2022/12/08 06:13:34;;;;;;;2.10;1.90;;;-1.30;99.90;;;;;;5053068;28;20469;-47
2022/12/08 06:16:04;;;;;;;2.30;1.80;;;-1.30;99.90;;;;;;5054044;28;20442;-47
2022/12/08 06:18:31;;;;;;;2.10;1.53;;;-1.30;99.90;;;;;;5052502;28;20532;-47
2022/12/08 06:21:03;;;;;;;2.00;1.60;;;-1.20;99.90;;;;;;5052556;28;20544;-47
2022/12/08 06:23:29;;;;;;;3.23;1.90;;;-1.30;99.90;;;;;;5053047;28;20535;-47
2022/12/08 06:26:01;;;;;;;2.43;2.00;;;-1.30;99.90;;;;;;5053245;28;20572;-47
2022/12/08 06:28:30;;;;;;;4.93;1.47;;;-1.20;99.90;;;;;;5053109;28;20961;-47
2022/12/08 06:30:57;;;;;;;1.90;1.60;;;-1.10;99.90;;;;;;5053163;28;20448;-47
2022/12/08 06:33:24;;;;;;;3.43;1.53;;;-1.30;99.90;;;;;;5052794;28;20996;-48
2022/12/08 06:35:51;;;;;;;2.10;1.47;;;-1.40;99.90;;;;;;5053106;28;20524;-47
2022/12/08 06:38:18;;;;;;;2.30;1.90;;;-1.50;99.90;;;;;;5053211;28;20446;-49
2022/12/08 06:40:44;;;;;;;11.57;8.00;;;-1.50;99.90;;;;;;5053027;28;20442;-49
2022/12/08 06:43:11;;;;;;;22.93;17.20;;;-1.50;99.90;;;;;;5052532;28;20462;-48
2022/12/08 06:45:41;;;;;;;57.43;34.30;;;-1.70;99.90;;;;;;5052868;28;20568;-49
2022/12/08 06:48:08;;;;;;;33.07;20.77;;;-1.50;99.90;;;;;;5052768;28;20966;-47
2022/12/08 06:50:35;;;;;;;33.23;25.50;;;-1.30;99.90;;;;;;5052688;28;20452;-47
2022/12/08 06:53:01;;;;;;;20.97;15.57;;;-1.40;99.90;;;;;;5052553;28;20557;-47
2022/12/08 06:55:28;;;;;;;7.60;6.20;;;-1.40;99.90;;;;;;5052923;28;20429;-47
2022/12/08 06:57:55;;;;;;;5.27;4.77;;;-1.20;99.90;;;;;;5052217;28;20445;-46
2022/12/08 07:00:23;;;;;;;3.43;2.90;;;-1.30;99.90;;;;;;5051921;28;20533;-47
2022/12/08 07:02:51;;;;;;;3.70;2.90;;;-1.50;99.90;;;;;;5052646;28;20545;-48
2022/12/08 07:05:18;;;;;;;5.07;4.57;;;-1.70;99.90;;;;;;5052473;28;20500;-47
2022/12/08 07:07:44;;;;;;;3.27;2.97;;;-1.80;99.90;;;;;;5052365;28;20442;-47
2022/12/08 07:10:11;;;;;;;4.80;3.20;;;-1.80;99.90;;;;;;5052586;28;20919;-47
2022/12/08 07:12:38;;;;;;;8.03;6.10;;;-1.40;99.90;;;;;;5052064;28;20458;-47
2022/12/08 07:15:06;;;;;;;4.10;3.07;;;-1.60;99.90;;;;;;5052055;28;20944;-46
2022/12/08 07:17:33;;;;;;;4.87;3.87;;;-1.90;99.90;;;;;;5052241;28;20525;-47
2022/12/08 07:20:01;;;;;;;4.53;2.47;;;-1.80;99.90;;;;;;5052091;28;20458;-47
2022/12/08 07:22:28;;;;;;;2.87;2.50;;;-1.80;99.90;;;;;;5052617;28;20445;-47
2022/12/08 07:24:55;;;;;;;2.63;2.23;;;-2.00;99.90;;;;;;5051832;28;20529;-47
2022/12/08 07:27:21;;;;;;;2.90;2.63;;;-1.80;99.90;;;;;;5052232;28;20488;-46
2022/12/08 07:29:48;;;;;;;3.73;3.43;;;-1.60;99.90;;;;;;5052362;28;20528;-47
2022/12/08 07:32:15;;;;;;;32.80;19.80;;;-1.70;99.90;;;;;;5052010;28;20440;-49
2022/12/08 07:34:42;;;;;;;9.80;7.73;;;-1.50;99.90;;;;;;5051873;28;20829;-47
2022/12/08 07:37:10;;;;;;;9.00;7.17;;;-1.90;99.90;;;;;;5052030;28;20441;-47
2022/12/08 07:39:37;;;;;;;92.23;51.30;;;-1.90;99.90;;;;;;5051653;28;20536;-48
2022/12/08 07:42:04;;;;;;;150.20;86.17;;;-1.70;99.90;;;;;;5051908;28;20536;-48
2022/12/08 07:44:31;;;;;;;32.10;18.40;;;-1.50;99.90;;;;;;5051693;28;20548;-47
2022/12/08 07:46:57;;;;;;;9.20;6.00;;;-1.40;99.90;;;;;;5051763;28;20576;-47
2022/12/08 07:49:24;;;;;;;4.90;4.50;;;-1.30;99.90;;;;;;5051697;28;20528;-47
2022/12/08 07:51:51;;;;;;;8.17;7.37;;;-1.40;99.90;;;;;;5051768;28;20442;-47
2022/12/08 07:54:19;;;;;;;11.40;7.77;;;-1.50;99.90;;;;;;5051356;28;20476;-45
2022/12/08 07:56:46;;;;;;;5.50;4.87;;;-1.50;99.90;;;;;;5051377;28;20552;-46
2022/12/08 07:59:13;;;;;;;17.70;12.30;;;-1.80;99.90;;;;;;5051533;28;20442;-46
2022/12/08 08:01:40;;;;;;;39.30;26.97;;;-1.60;99.90;;;;;;5051534;28;20450;-46
2022/12/08 08:04:07;;;;;;;18.57;15.67;;;-1.40;99.90;;;;;;5051058;28;20469;-48
2022/12/08 08:06:35;;;;;;;10.70;7.67;;;-1.40;99.90;;;;;;5051450;28;20856;-46
2022/12/08 08:09:02;;;;;;;20.43;13.10;;;-1.50;99.90;;;;;;5051765;28;20489;-47
2022/12/08 08:11:30;;;;;;;17.07;11.67;;;-1.50;99.90;;;;;;5051096;28;20516;-46
2022/12/08 08:13:57;;;;;;;16.30;12.03;;;-1.60;99.90;;;;;;5050964;28;20496;-46
2022/12/08 08:16:24;;;;;;;6.30;5.70;;;-1.60;99.90;;;;;;5051300;28;20538;-46
2022/12/08 08:18:51;;;;;;;11.80;9.07;;;-1.50;99.90;;;;;;5051170;28;20480;-47
2022/12/08 08:21:20;;;;;;;6.53;5.40;;;-1.60;99.90;;;;;;5051192;28;20449;-46
2022/12/08 08:23:47;;;;;;;5.23;4.70;;;-1.40;99.90;;;;;;5051010;28;20544;-45
2022/12/08 08:26:14;;;;;;;6.13;5.20;;;-1.40;99.90;;;;;;5051175;28;20564;-49
2022/12/08 08:28:44;;;;;;;4.63;4.23;;;-1.50;99.90;;;;;;5051099;28;20639;-44
2022/12/08 08:31:11;;;;;;;4.80;3.90;;;-1.60;99.90;;;;;;5051172;28;20438;-48
2022/12/08 08:33:38;;;;;;;5.53;4.80;;;-1.70;99.90;;;;;;5052396;28;20470;-46
2022/12/08 08:36:07;;;;;;;5.33;4.70;;;-1.60;99.90;;;;;;5051160;28;20452;-49
2022/12/08 08:38:38;;;;;;;6.17;3.47;;;-1.60;99.90;;;;;;5051418;28;20445;-46
2022/12/08 08:41:08;;;;;;;2.77;2.40;;;-1.50;99.90;;;;;;5050992;28;20445;-46
2022/12/08 08:43:35;;;;;;;4.23;2.73;;;-1.70;99.90;;;;;;5050750;28;20466;-47
2022/12/08 08:46:05;;;;;;;4.50;3.27;;;-1.50;99.90;;;;;;5050712;28;21047;-46
2022/12/08 08:48:32;;;;;;;3.07;2.87;;;-1.50;99.90;;;;;;5051167;28;20520;-49
2022/12/08 08:51:07;;;;;;;6.67;4.67;;;-1.90;99.90;;;;;;5051105;28;20533;-46
2022/12/08 08:53:34;;;;;;;3.07;2.77;;;-2.10;99.90;;;;;;5050906;28;20465;-46
2022/12/08 08:56:01;;;;;;;5.20;3.77;;;-2.00;99.90;;;;;;5050551;28;20433;-46
2022/12/08 08:58:27;;;;;;;3.63;2.83;;;-1.90;99.90;;;;;;5050918;28;20454;-46
2022/12/08 09:00:54;;;;;;;2.60;2.40;;;-1.90;99.90;;;;;;5050978;28;20440;-46
2022/12/08 09:03:23;;;;;;;6.90;2.83;;;-1.70;99.90;;;;;;5050401;28;20476;-46
2022/12/08 09:05:51;;;;;;;4.43;2.87;;;-1.40;99.90;;;;;;5050690;28;21083;-47
2022/12/08 09:08:17;;;;;;;4.70;2.80;;;-1.30;99.90;;;;;;5050564;28;20449;-47
2022/12/08 09:10:44;;;;;;;5.10;2.70;;;-1.40;99.90;;;;;;5050922;28;20523;-47
2022/12/08 09:13:11;;;;;;;7.03;3.70;;;-1.70;99.90;;;;;;5050440;28;20470;-49
2022/12/08 09:15:38;;;;;;;4.10;2.90;;;-1.60;99.90;;;;;;5049496;28;20451;-47
2022/12/08 09:18:06;;;;;;;4.80;3.43;;;-1.50;99.90;;;;;;5049910;28;20532;-46
2022/12/08 09:20:35;;;;;;;3.53;2.30;;;-1.60;99.90;;;;;;5049895;28;20512;-48
2022/12/08 09:23:02;;;;;;;5.23;2.90;;;-1.90;99.90;;;;;;5049863;28;20462;-46
2022/12/08 09:25:29;;;;;;;3.47;2.50;;;-1.60;99.90;;;;;;5053041;28;20437;-47
2022/12/08 09:27:56;;;;;;;3.90;2.70;;;-1.30;99.90;;;;;;5052131;28;21013;-48
2022/12/08 09:30:23;;;;;;;2.30;1.97;;;-1.00;99.90;;;;;;5052466;28;20532;-49
2022/12/08 09:32:50;;;;;;;7.73;4.20;;;-1.10;99.90;;;;;;5052565;28;20469;-47
2022/12/08 09:35:17;;;;;;;7.50;4.10;;;-1.10;99.90;;;;;;5052575;28;20532;-51
2022/12/08 09:37:45;;;;;;;6.30;5.13;;;-0.90;99.90;;;;;;5052443;28;20472;-47
2022/12/08 09:40:16;;;;;;;9.43;6.67;;;-0.90;99.90;;;;;;5051614;28;20441;-43
2022/12/08 09:42:50;;;;;;;3.70;3.33;;;-0.80;99.90;;;;;;5052461;28;20462;-46
2022/12/08 09:45:19;;;;;;;4.00;2.70;;;-0.70;99.90;;;;;;5053442;28;20445;-46
2022/12/08 09:47:56;;;;;;;2.67;1.80;;;-0.70;99.90;;;;;;5052640;28;21093;-49
2022/12/08 09:50:31;;;;;;;2.00;1.80;;;-0.80;99.90;;;;;;5052258;28;20533;-46
2022/12/08 09:53:03;;;;;;;4.23;2.87;;;-0.90;99.90;;;;;;5062623;28;21098;-46
2022/12/08 09:55:40;;;;;;;6.53;3.43;;;-1.00;99.90;;;;;;5073517;28;20521;-46
2022/12/08 09:58:17;;;;;;;5.50;3.20;;;-0.60;99.90;;;;;;5073149;28;20527;-46
2022/12/08 10:00:44;;;;;;;7.10;3.70;;;-0.60;99.90;;;;;;5073379;28;20536;-48
2022/12/08 10:03:12;;;;;;;2.80;2.40;;;-0.50;99.90;;;;;;5072036;28;20468;-46
2022/12/08 10:05:51;;;;;;;10.97;5.20;;;-0.60;99.90;;;;;;5072081;28;20532;-47
2022/12/08 10:08:27;;;;;;;5.60;2.97;;;-0.90;99.90;;;;;;5071335;28;20511;-47
2022/12/08 10:10:58;;;;;;;5.50;3.40;;;-0.60;99.90;;;;;;5070112;28;20498;-47
2022/12/08 10:13:35;;;;;;;4.40;2.33;;;-0.60;99.90;;;;;;5071637;28;20981;-47
2022/12/08 10:16:12;;;;;;;2.30;1.77;;;-0.50;99.90;;;;;;5071838;28;21036;-47
2022/12/08 10:18:40;;;;;;;2.87;2.20;;;-0.20;99.90;;;;;;5072067;28;20443;-49
2022/12/08 10:21:15;;;;;;;2.10;1.63;;;0.10;99.90;;;;;;5071648;28;21021;-47
2022/12/08 10:23:47;;;;;;;2.63;1.70;;;0.40;99.90;;;;;;5071676;28;20492;-49
2022/12/08 10:26:16;;;;;;;2.83;1.60;;;0.50;99.90;;;;;;5073221;28;20575;-47
2022/12/08 10:28:43;;;;;;;1.93;1.50;;;0.50;99.90;;;;;;5073316;28;20925;-47
2022/12/08 10:31:16;;;;;;;2.07;1.73;;;0.60;99.90;;;;;;5073272;28;20445;-46
2022/12/08 10:33:43;;;;;;;3.40;1.90;;;0.60;99.90;;;;;;5072143;28;20826;-46
2022/12/08 10:36:11;;;;;;;2.07;1.87;;;0.70;99.90;;;;;;5073056;28;20539;-46
2022/12/08 10:38:40;;;;;;;1.53;1.20;;;0.60;99.90;;;;;;5073065;28;20463;-46
2022/12/08 10:41:16;;;;;;;1.33;1.23;;;0.70;99.90;;;;;;5072694;28;20989;-48
2022/12/08 10:43:47;;;;;;;1.50;1.13;;;0.70;99.90;;;;;;5072628;28;20475;-46
2022/12/08 10:46:17;;;;;;;2.00;1.50;;;0.70;99.90;;;;;;5073113;28;20524;-47
2022/12/08 10:48:53;;;;;;;2.33;1.97;;;0.80;99.90;;;;;;5073188;28;20437;-47
2022/12/08 10:51:26;;;;;;;1.50;1.33;;;0.70;99.90;;;;;;5073148;28;20571;-48
2022/12/08 10:53:53;;;;;;;1.60;1.40;;;0.80;99.90;;;;;;5072903;28;20492;-46
2022/12/08 10:56:25;;;;;;;9.10;1.60;;;0.90;99.90;;;;;;5072959;28;20871;-46
2022/12/08 10:59:06;;;;;;;1.40;1.30;;;0.80;99.90;;;;;;5073092;28;20456;-49
2022/12/08 11:01:37;;;;;;;1.50;1.40;;;1.00;99.90;;;;;;5073003;28;20447;-47
2022/12/08 11:04:07;;;;;;;1.40;1.30;;;0.80;99.90;;;;;;5072357;28;20551;-47
2022/12/08 11:06:38;;;;;;;1.50;0.93;;;0.90;99.90;;;;;;5072205;28;20858;-47
2022/12/08 11:09:21;;;;;;;1.83;1.17;;;0.80;99.90;;;;;;5072360;28;20455;-47
2022/12/08 11:11:51;;;;;;;1.43;1.00;;;0.70;99.90;;;;;;5072277;28;20533;-48
2022/12/08 11:14:22;;;;;;;1.43;1.33;;;0.80;99.90;;;;;;5071888;28;20461;-47
2022/12/08 11:16:50;;;;;;;2.10;1.90;;;1.00;99.90;;;;;;5072481;28;20465;-47
2022/12/08 11:19:18;;;;;;;2.33;1.53;;;1.30;99.90;;;;;;5072134;28;20456;-47
2022/12/08 11:21:46;;;;;;;3.60;1.70;;;1.30;99.90;;;;;;5072402;28;20942;-49
2022/12/08 11:24:23;;;;;;;1.93;1.50;;;1.40;99.90;;;;;;5071567;28;21053;-49
2022/12/08 11:26:54;;;;;;;1.73;1.43;;;1.50;99.90;;;;;;5071815;28;20567;-47
2022/12/08 11:29:22;;;;;;;2.00;1.47;;;1.50;99.90;;;;;;5071511;28;20524;-47
2022/12/08 11:31:52;;;;;;;3.47;2.03;;;1.50;99.90;;;;;;5071755;28;20531;-47
2022/12/08 11:34:23;;;;;;;2.43;1.97;;;1.50;99.90;;;;;;5071516;28;20552;-47
2022/12/08 11:36:53;;;;;;;2.63;1.93;;;1.50;99.90;;;;;;5071698;28;20445;-45
2022/12/08 11:39:21;;;;;;;4.40;2.90;;;1.70;99.90;;;;;;5071768;28;20448;-47
2022/12/08 11:41:48;;;;;;;4.47;3.20;;;1.80;99.90;;;;;;5071538;28;20532;-47
2022/12/08 11:44:25;;;;;;;2.87;2.50;;;1.80;99.90;;;;;;5071271;28;20572;-49
2022/12/08 11:46:55;;;;;;;4.43;2.57;;;1.80;99.90;;;;;;5071030;28;20560;-47
2022/12/08 11:49:31;;;;;;;3.93;2.90;;;2.00;99.90;;;;;;5071744;28;20449;-47
2022/12/08 11:52:03;;;;;;;4.63;3.00;;;2.00;99.90;;;;;;5070387;28;20446;-47
2022/12/08 11:54:34;;;;;;;4.07;2.60;;;2.00;99.90;;;;;;5069820;28;20974;-49
2022/12/08 11:57:02;;;;;;;3.90;2.20;;;2.20;99.90;;;;;;5070218;28;20554;-47
2022/12/08 11:59:37;;;;;;;7.27;4.33;;;2.20;99.90;;;;;;5070518;28;20473;-47
2022/12/08 12:02:05;;;;;;;3.40;2.17;;;2.20;99.90;;;;;;5070297;28;20860;-51
2022/12/08 12:04:37;;;;;;;2.50;2.03;;;2.10;99.90;;;;;;5069401;28;20548;-48
2022/12/08 12:07:35;;;;;;;3.13;1.63;;;2.20;99.90;;;;;;5069984;28;20534;-48
2022/12/08 12:10:25;;;;;;;3.57;1.87;;;2.20;99.90;;;;;;5070253;28;20525;-49
2022/12/08 12:13:06;;;;;;;2.50;2.07;;;2.20;99.90;;;;;;5060553;28;20553;-47
2022/12/08 12:16:02;;;;;;;4.47;1.90;;;2.00;99.90;;;;;;5070076;28;20519;-47
2022/12/08 12:18:34;;;;;;;2.73;2.53;;;2.10;99.90;;;;;;5071056;28;20433;-49
2022/12/08 12:21:07;;;;;;;3.00;2.60;;;2.10;99.90;;;;;;5071604;28;20451;-48
2022/12/08 12:23:40;;;;;;;1.77;1.67;;;2.10;99.90;;;;;;5071003;28;20548;-48
2022/12/08 12:26:09;;;;;;;2.20;1.63;;;2.10;99.90;;;;;;5068017;28;20853;-47
2022/12/08 12:28:43;;;;;;;4.33;1.77;;;2.20;99.90;;;;;;5071554;28;20567;-46
2022/12/08 12:31:16;;;;;;;2.13;1.60;;;2.10;99.90;;;;;;5072090;28;20442;-47
2022/12/08 12:33:46;;;;;;;2.00;1.50;;;2.10;99.90;;;;;;5070052;28;20546;-47
2022/12/08 12:36:14;;;;;;;1.90;1.50;;;2.10;99.90;;;;;;5067407;28;20469;-48
2022/12/08 12:39:05;;;;;;;1.93;1.43;;;2.10;99.90;;;;;;5054789;28;20973;-47
2022/12/08 12:41:42;;;;;;;2.67;1.27;;;2.10;99.90;;;;;;5051066;28;20545;-48
2022/12/08 12:44:44;;;;;;;2.17;1.77;;;2.10;99.90;;;;;;5050784;28;20667;-50
2022/12/08 12:47:34;;;;;;;3.50;2.47;;;2.20;99.90;;;;;;5050659;28;20568;-50
2022/12/08 12:50:12;;;;;;;2.37;1.53;;;2.30;99.90;;;;;;5050503;28;20902;-47
2022/12/08 12:52:48;;;;;;;2.20;1.47;;;2.20;99.90;;;;;;5051691;28;20453;-48
2022/12/08 12:55:50;;;;;;;5.30;1.80;;;2.20;99.90;;;;;;5051142;28;20482;-48
2022/12/08 12:58:39;;;;;;;2.70;1.40;;;2.30;99.90;;;;;;5051141;28;20441;-49
2022/12/08 13:01:45;;;;;;;2.03;1.30;;;2.30;99.90;;;;;;5053560;28;20738;-48
2022/12/08 13:04:13;;;;;;;2.00;1.13;;;2.30;99.90;;;;;;5053032;28;20479;-49
2022/12/08 13:06:43;;;;;;;1.53;1.40;;;2.30;99.90;;;;;;5053145;28;20536;-49
2022/12/08 13:09:30;;;;;;;1.73;1.13;;;2.20;99.90;;;;;;5053299;28;20476;-48